createdAt,value
2023-03-14T00:00:59.248Z,1.89
2023-03-14T00:03:28.251Z,1.94
2023-03-14T00:05:57.880Z,1.87
2023-03-14T00:08:27.452Z,1.85
2023-03-14T00:10:58.908Z,1.90
2023-03-14T00:13:27.931Z,1.67
2023-03-14T00:16:03.807Z,1.82
2023-03-14T00:18:33.540Z,1.81
2023-03-14T00:21:03.607Z,1.91
2023-03-14T00:23:33.955Z,1.66
2023-03-14T00:26:04.558Z,1.85
2023-03-14T00:28:34.028Z,1.81
2023-03-14T00:31:07.405Z,1.73
2023-03-14T00:33:36.777Z,1.77
2023-03-14T00:36:10.239Z,1.51
2023-03-14T00:38:41.000Z,1.55
2023-03-14T00:41:13.275Z,1.66
2023-03-14T00:43:44.583Z,1.61
2023-03-14T00:46:15.582Z,1.53
2023-03-14T00:48:47.650Z,1.56
2023-03-14T00:51:17.313Z,1.51
2023-03-14T00:53:46.626Z,1.52
2023-03-14T00:56:16.626Z,1.61
2023-03-14T00:58:45.980Z,1.61
2023-03-14T01:01:18.882Z,1.60
2023-03-14T01:03:47.687Z,1.65
2023-03-14T01:06:20.261Z,1.61
2023-03-14T01:08:49.988Z,1.61
2023-03-14T01:11:21.167Z,1.63
2023-03-14T01:13:51.497Z,1.63
2023-03-14T01:16:23.382Z,1.63
2023-03-14T01:18:52.722Z,1.60
2023-03-14T01:21:24.604Z,1.56
2023-03-14T01:23:54.884Z,1.43
2023-03-14T01:26:26.869Z,1.68
2023-03-14T01:28:58.328Z,1.70
2023-03-14T01:31:30.332Z,1.73
2023-03-14T01:33:59.522Z,1.66
2023-03-14T01:36:30.497Z,1.64
2023-03-14T01:39:02.453Z,1.70
2023-03-14T01:41:32.754Z,1.65
2023-03-14T01:44:02.746Z,1.64
2023-03-14T01:46:43.171Z,1.59
2023-03-14T01:49:23.337Z,1.39
2023-03-14T01:52:06.214Z,1.58
2023-03-14T01:54:39.594Z,1.38
2023-03-14T01:57:13.517Z,1.41
2023-03-14T01:59:45.940Z,1.40
2023-03-14T02:02:18.108Z,1.29
2023-03-14T02:04:47.927Z,1.26
2023-03-14T02:07:22.150Z,1.27
2023-03-14T02:10:13.294Z,1.08
2023-03-14T02:12:44.482Z,1.12
2023-03-14T02:15:19.680Z,1.08
2023-03-14T02:18:08.608Z,0.96
2023-03-14T02:21:01.876Z,1.07
2023-03-14T02:23:39.082Z,1.05
2023-03-14T02:26:13.300Z,1.01
2023-03-14T02:28:44.956Z,1.01
2023-03-14T02:31:19.879Z,0.98
2023-03-14T02:33:49.925Z,0.95
2023-03-14T02:36:21.309Z,0.83
2023-03-14T02:38:56.645Z,0.86
2023-03-14T02:41:28.149Z,0.88
2023-03-14T02:44:05.525Z,0.78
2023-03-14T02:46:37.460Z,0.73
2023-03-14T02:49:10.640Z,0.82
2023-03-14T02:51:40.796Z,0.82
2023-03-14T02:54:10.349Z,0.85
2023-03-14T02:56:39.858Z,0.79
2023-03-14T02:59:11.484Z,0.73
2023-03-14T03:01:48.476Z,0.76
2023-03-14T03:04:17.533Z,0.65
2023-03-14T03:06:49.388Z,0.56
2023-03-14T03:09:19.603Z,0.47
2023-03-14T03:11:48.519Z,0.42
2023-03-14T03:14:24.131Z,0.49
2023-03-14T03:16:54.324Z,0.45
2023-03-14T03:19:24.160Z,0.39
2023-03-14T03:21:53.200Z,0.39
2023-03-14T03:24:22.145Z,0.36
2023-03-14T03:26:52.565Z,0.35
2023-03-14T03:29:21.803Z,0.40
2023-03-14T03:31:52.811Z,0.40
2023-03-14T03:34:22.451Z,0.42
2023-03-14T03:36:54.420Z,0.44
2023-03-14T03:39:23.479Z,0.48
2023-03-14T03:41:53.114Z,0.41
2023-03-14T03:44:22.939Z,0.39
2023-03-14T03:46:53.895Z,0.38
2023-03-14T03:49:22.947Z,0.45
2023-03-14T03:51:53.334Z,0.49
2023-03-14T03:54:23.688Z,0.52
2023-03-14T03:56:52.770Z,0.58
2023-03-14T03:59:22.258Z,0.70
2023-03-14T04:01:52.846Z,0.70
2023-03-14T04:04:23.260Z,0.74
2023-03-14T04:06:52.490Z,0.70
2023-03-14T04:09:21.626Z,0.77
2023-03-14T04:12:03.642Z,0.83
2023-03-14T04:14:55.489Z,0.83
2023-03-14T04:17:26.753Z,0.89
2023-03-14T04:19:56.712Z,0.93
2023-03-14T04:22:33.720Z,0.74
2023-03-14T04:25:03.707Z,0.64
2023-03-14T04:27:36.331Z,0.57
2023-03-14T04:30:11.003Z,0.46
2023-03-14T04:32:56.808Z,0.52
2023-03-14T04:35:28.010Z,0.56
2023-03-14T04:38:01.856Z,0.52
2023-03-14T04:40:33.529Z,0.49
2023-03-14T04:43:06.889Z,0.55
2023-03-14T04:45:37.539Z,0.43
2023-03-14T04:48:11.634Z,0.43
2023-03-14T04:50:41.165Z,0.39
2023-03-14T04:53:10.296Z,0.45
2023-03-14T04:55:39.839Z,0.32
2023-03-14T04:58:09.208Z,0.26
2023-03-14T05:00:39.820Z,0.33
2023-03-14T05:03:42.903Z,0.40
2023-03-14T05:06:30.020Z,0.46
2023-03-14T05:09:11.612Z,0.50
2023-03-14T05:11:52.069Z,0.70
2023-03-14T05:14:34.494Z,1.13
2023-03-14T05:17:03.722Z,1.62
2023-03-14T05:20:13.902Z,2.11
2023-03-14T05:23:15.630Z,2.59
2023-03-14T05:26:20.360Z,2.95
2023-03-14T05:38:19.046Z,3.66
2023-03-14T05:41:11.785Z,3.54
2023-03-14T05:43:58.488Z,3.43
2023-03-14T05:47:00.124Z,3.16
2023-03-14T05:50:04.638Z,3.17
2023-03-14T05:52:39.304Z,3.19
2023-03-14T05:55:30.142Z,3.56
2023-03-14T05:58:21.817Z,4.66
2023-03-14T06:01:08.263Z,6.00
2023-03-14T06:04:00.213Z,7.37
2023-03-14T06:06:30.144Z,8.61
2023-03-14T06:09:01.872Z,9.44
2023-03-14T06:11:35.443Z,10.07
2023-03-14T06:14:06.978Z,11.71
2023-03-14T06:16:36.220Z,12.80
2023-03-14T06:19:06.993Z,13.76
2023-03-14T06:21:36.408Z,14.50
2023-03-14T06:24:06.003Z,14.79
2023-03-14T06:26:43.507Z,14.58
2023-03-14T06:29:14.651Z,13.30
2023-03-14T06:31:44.343Z,14.53
2023-03-14T06:34:19.540Z,14.52
2023-03-14T06:36:50.501Z,14.56
2023-03-14T06:39:19.845Z,14.10
2023-03-14T06:41:56.471Z,13.10
2023-03-14T06:44:25.722Z,12.00
2023-03-14T06:46:54.751Z,11.89
2023-03-14T06:49:25.924Z,11.19
2023-03-14T06:51:57.587Z,9.82
2023-03-14T06:54:27.295Z,9.77
2023-03-14T06:56:58.084Z,9.42
2023-03-14T06:59:27.610Z,9.02
2023-03-14T07:01:56.811Z,8.81
2023-03-14T07:04:26.120Z,8.88
2023-03-14T07:06:55.229Z,9.13
2023-03-14T07:09:24.302Z,9.51
2023-03-14T07:12:01.463Z,9.15
2023-03-14T07:14:31.498Z,8.89
2023-03-14T07:17:02.256Z,8.32
2023-03-14T07:19:31.514Z,8.47
2023-03-14T07:22:00.590Z,8.90
2023-03-14T07:24:31.094Z,8.96
2023-03-14T07:27:01.568Z,9.37
2023-03-14T07:29:30.854Z,9.77
2023-03-14T07:32:00.925Z,9.60
2023-03-14T07:34:31.222Z,9.30
2023-03-14T07:37:00.533Z,9.82
2023-03-14T07:39:30.387Z,9.77
2023-03-14T07:42:09.664Z,9.93
2023-03-14T07:44:59.800Z,10.03
2023-03-14T07:47:29.031Z,9.98
2023-03-14T07:49:58.681Z,10.30
2023-03-14T07:52:28.392Z,10.18
2023-03-14T07:54:57.969Z,10.44
2023-03-14T07:57:28.444Z,10.12
2023-03-14T07:59:57.703Z,10.15
2023-03-14T08:02:26.787Z,10.06
2023-03-14T08:04:56.548Z,10.35
2023-03-14T08:07:25.684Z,10.30
2023-03-14T08:09:54.788Z,9.66
2023-03-14T08:12:24.482Z,9.69
2023-03-14T08:14:55.528Z,9.48
2023-03-14T08:17:24.606Z,9.74
2023-03-14T08:19:53.654Z,9.78
2023-03-14T08:22:23.804Z,9.65
2023-03-14T08:24:52.725Z,9.75
2023-03-14T08:27:21.832Z,10.33
2023-03-14T08:29:50.871Z,10.02
2023-03-14T08:32:23.755Z,10.57
2023-03-14T08:34:53.143Z,10.87
2023-03-14T08:37:26.679Z,11.12
2023-03-14T08:39:57.658Z,11.50
2023-03-14T08:42:26.893Z,11.27
2023-03-14T08:44:56.520Z,11.23
2023-03-14T08:47:27.186Z,11.23
2023-03-14T08:49:56.812Z,11.70
2023-03-14T08:52:26.614Z,11.96
2023-03-14T08:54:55.681Z,11.88
2023-03-14T08:57:28.565Z,11.66
2023-03-14T08:59:58.374Z,12.13
2023-03-14T09:02:29.780Z,11.96
2023-03-14T09:04:59.514Z,11.96
2023-03-14T09:07:28.518Z,12.20
2023-03-14T09:09:57.499Z,12.34
2023-03-14T09:12:26.981Z,12.71
2023-03-14T09:14:56.794Z,12.73
2023-03-14T09:17:26.705Z,13.20
2023-03-14T09:19:59.461Z,12.56
2023-03-14T09:22:29.654Z,12.43
2023-03-14T09:24:58.713Z,12.66
2023-03-14T09:27:27.658Z,12.63
2023-03-14T09:29:56.791Z,12.70
2023-03-14T09:32:25.932Z,13.00
2023-03-14T09:34:54.992Z,12.58
2023-03-14T09:37:25.541Z,13.04
2023-03-14T09:39:54.643Z,13.30
2023-03-14T09:42:27.919Z,13.34
2023-03-14T09:45:00.140Z,13.44
2023-03-14T09:47:30.308Z,13.70
2023-03-14T09:50:01.044Z,13.86
2023-03-14T09:52:35.434Z,13.97
2023-03-14T09:55:07.220Z,13.95
2023-03-14T09:57:38.152Z,13.94
2023-03-14T10:00:15.967Z,14.16
2023-03-14T10:02:50.101Z,13.78
2023-03-14T10:05:21.884Z,14.23
2023-03-14T10:07:52.946Z,14.31
2023-03-14T10:10:25.534Z,14.50
2023-03-14T10:12:59.608Z,14.44
2023-03-14T10:15:32.968Z,14.05
2023-03-14T10:18:03.424Z,14.23
2023-03-14T10:20:35.741Z,14.14
2023-03-14T10:23:09.065Z,13.92
2023-03-14T10:25:41.682Z,14.27
2023-03-14T10:28:25.748Z,14.62
2023-03-14T10:30:55.682Z,14.36
2023-03-14T10:33:27.100Z,14.44
2023-03-14T10:35:58.194Z,14.58
2023-03-14T10:38:31.277Z,14.15
2023-03-14T10:41:02.111Z,14.49
2023-03-14T10:43:36.656Z,14.62
2023-03-14T10:46:12.107Z,14.85
2023-03-14T10:49:01.352Z,15.07
2023-03-14T10:51:32.573Z,15.52
2023-03-14T10:54:05.723Z,15.43
2023-03-14T10:56:38.600Z,15.98
2023-03-14T10:59:15.192Z,16.45
2023-03-14T11:01:52.873Z,17.00
2023-03-14T11:04:44.650Z,17.18
2023-03-14T11:07:22.407Z,16.86
2023-03-14T11:09:59.074Z,17.43
2023-03-14T11:12:47.950Z,17.14
2023-03-14T11:15:27.263Z,16.23
2023-03-14T11:18:16.154Z,16.80
2023-03-14T11:20:50.297Z,17.56
2023-03-14T11:23:23.403Z,17.06
2023-03-14T11:25:57.005Z,17.57
2023-03-14T11:28:32.805Z,17.57
2023-03-14T11:31:07.216Z,17.73
2023-03-14T11:33:41.542Z,17.68
2023-03-14T11:36:12.998Z,18.00
2023-03-14T11:38:50.406Z,18.02
2023-03-14T11:41:25.594Z,17.49
2023-03-14T11:43:58.104Z,17.71
2023-03-14T11:46:30.739Z,18.24
2023-03-14T11:49:07.729Z,18.20
2023-03-14T11:51:39.772Z,18.26
2023-03-14T11:54:18.678Z,18.39
2023-03-14T11:56:55.805Z,18.40
2023-03-14T11:59:30.744Z,18.29
2023-03-14T12:02:03.436Z,18.35
2023-03-14T12:04:48.159Z,18.51
2023-03-14T12:07:23.610Z,18.23
2023-03-14T12:09:57.168Z,18.05
2023-03-14T12:12:32.275Z,18.56
2023-03-14T12:15:04.081Z,18.81
2023-03-14T12:17:39.834Z,18.61
2023-03-14T12:20:20.117Z,18.29
2023-03-14T12:22:51.785Z,18.75
2023-03-14T12:25:22.566Z,18.74
2023-03-14T12:28:19.583Z,18.50
2023-03-14T12:30:49.088Z,19.05
2023-03-14T12:33:28.886Z,19.55
2023-03-14T12:36:18.512Z,19.65
2023-03-14T12:38:59.946Z,19.37
2023-03-14T12:41:38.928Z,19.73
2023-03-14T12:44:46.329Z,19.96
2023-03-14T12:47:54.274Z,20.18
2023-03-14T12:50:36.314Z,20.10
2023-03-14T12:53:39.244Z,19.62
2023-03-14T12:56:24.158Z,20.06
2023-03-14T12:59:19.003Z,19.69
2023-03-14T13:01:56.261Z,19.33
2023-03-14T13:04:38.776Z,19.22
2023-03-14T13:07:13.906Z,18.49
2023-03-14T13:10:04.017Z,18.72
2023-03-14T13:12:41.050Z,18.50
2023-03-14T13:15:21.029Z,18.21
2023-03-14T13:17:56.287Z,18.16
2023-03-14T13:20:31.892Z,17.73
2023-03-14T13:23:00.962Z,17.31
2023-03-14T13:25:34.966Z,17.60
2023-03-14T13:28:05.617Z,17.37
2023-03-14T13:30:42.725Z,17.13
2023-03-14T13:33:17.627Z,17.00
2023-03-14T13:35:48.846Z,17.31
2023-03-14T13:38:22.220Z,17.31
2023-03-14T13:40:53.348Z,17.35
2023-03-14T13:43:32.242Z,17.30
2023-03-14T13:46:07.323Z,17.12
2023-03-14T13:48:45.623Z,16.85
2023-03-14T13:51:17.740Z,17.27
2023-03-14T13:53:47.453Z,17.28
2023-03-14T13:56:16.506Z,17.36
2023-03-14T13:58:46.180Z,17.19
2023-03-14T14:01:18.470Z,17.19
2023-03-14T14:03:52.597Z,17.01
2023-03-14T14:06:33.384Z,16.73
2023-03-14T14:09:05.622Z,16.83
2023-03-14T14:11:48.817Z,16.83
2023-03-14T14:14:24.172Z,16.70
2023-03-14T14:16:54.786Z,16.86
2023-03-14T14:19:30.092Z,16.91
2023-03-14T14:22:00.065Z,16.95
2023-03-14T14:24:32.796Z,17.04
2023-03-14T14:27:04.570Z,17.27
2023-03-14T14:29:35.463Z,17.45
2023-03-14T14:32:13.414Z,17.31
2023-03-14T14:34:51.484Z,17.31
2023-03-14T14:37:23.769Z,17.21
2023-03-14T14:39:56.530Z,16.92
2023-03-14T14:42:29.993Z,16.96
2023-03-14T14:45:01.204Z,16.87
2023-03-14T14:47:32.203Z,16.70
2023-03-14T14:50:07.230Z,16.73
2023-03-14T14:52:42.490Z,16.60
2023-03-14T14:55:18.773Z,16.58
2023-03-14T14:57:53.121Z,16.50
2023-03-14T15:00:24.722Z,16.59
2023-03-14T15:02:56.382Z,16.66
2023-03-14T15:05:31.248Z,16.43
2023-03-14T15:08:00.249Z,16.28
2023-03-14T15:10:30.016Z,16.29
2023-03-14T15:12:58.984Z,16.26
2023-03-14T15:15:27.804Z,16.12
2023-03-14T15:17:58.160Z,16.11
2023-03-14T15:20:28.541Z,16.01
2023-03-14T15:22:58.036Z,15.96
2023-03-14T15:25:51.262Z,15.93
2023-03-14T15:28:21.175Z,15.69
2023-03-14T15:30:50.819Z,15.43
2023-03-14T15:33:21.321Z,15.50
2023-03-14T15:35:53.189Z,15.33
2023-03-14T15:38:24.333Z,15.18
2023-03-14T15:40:55.314Z,15.07
2023-03-14T15:43:24.479Z,14.96
2023-03-14T15:45:53.611Z,14.88
2023-03-14T15:48:23.833Z,14.83
2023-03-14T15:50:54.838Z,14.63
2023-03-14T15:53:23.802Z,14.60
2023-03-14T15:55:53.432Z,14.45
2023-03-14T15:58:24.133Z,14.36
2023-03-14T16:00:53.308Z,14.18
2023-03-14T16:03:22.496Z,14.16
2023-03-14T16:05:51.649Z,14.03
2023-03-14T16:08:22.065Z,13.89
2023-03-14T16:10:51.923Z,13.83
2023-03-14T16:13:21.899Z,13.76
2023-03-14T16:15:58.801Z,13.74
2023-03-14T16:18:30.880Z,13.60
2023-03-14T16:21:01.129Z,13.57
2023-03-14T16:23:31.820Z,13.41
2023-03-14T16:26:04.929Z,13.24
2023-03-14T16:28:34.318Z,13.13
2023-03-14T16:31:04.041Z,12.90
2023-03-14T16:33:33.246Z,12.92
2023-03-14T16:36:06.437Z,12.61
2023-03-14T16:38:38.397Z,12.57
2023-03-14T16:41:11.418Z,12.32
2023-03-14T16:43:40.507Z,12.29
2023-03-14T16:46:13.284Z,12.07
2023-03-14T16:48:42.993Z,12.08
2023-03-14T16:51:12.518Z,11.85
2023-03-14T16:53:43.408Z,11.59
2023-03-14T16:56:13.394Z,11.55
2023-03-14T16:58:43.257Z,11.39
2023-03-14T17:01:18.099Z,11.18
2023-03-14T17:03:48.540Z,11.08
2023-03-14T17:06:20.086Z,11.00
2023-03-14T17:08:51.383Z,10.88
2023-03-14T17:11:22.020Z,10.77
2023-03-14T17:13:51.181Z,10.65
2023-03-14T17:16:22.222Z,10.58
2023-03-14T17:18:52.868Z,10.52
2023-03-14T17:21:21.980Z,10.40
2023-03-14T17:23:52.779Z,10.36
2023-03-14T17:26:23.216Z,10.36
2023-03-14T17:28:53.274Z,10.22
2023-03-14T17:31:24.190Z,10.18
2023-03-14T17:33:54.172Z,10.06
2023-03-14T17:36:27.330Z,9.81
2023-03-14T17:38:58.855Z,9.66
2023-03-14T17:41:27.972Z,9.74
2023-03-14T17:43:58.116Z,9.70
2023-03-14T17:46:27.722Z,9.59
2023-03-14T17:48:56.789Z,9.61
2023-03-14T17:51:26.037Z,9.46
2023-03-14T17:53:55.706Z,9.42
2023-03-14T17:56:26.233Z,9.42
2023-03-14T17:58:55.449Z,9.38
2023-03-14T18:01:24.683Z,9.32
2023-03-14T18:03:56.625Z,9.22
2023-03-14T18:06:27.421Z,9.04
2023-03-14T18:08:57.422Z,9.16
2023-03-14T18:11:28.371Z,9.13
2023-03-14T18:13:58.210Z,8.98
2023-03-14T18:16:27.506Z,8.64
2023-03-14T18:19:00.195Z,8.78
2023-03-14T18:21:31.253Z,8.77
2023-03-14T18:24:01.887Z,8.82
2023-03-14T18:26:33.341Z,8.80
2023-03-14T18:29:02.785Z,8.82
2023-03-14T18:31:35.709Z,8.73
2023-03-14T18:34:04.930Z,8.64
2023-03-14T18:36:34.247Z,8.65
2023-03-14T18:39:04.932Z,8.45
2023-03-14T18:41:37.413Z,8.34
2023-03-14T18:44:06.798Z,8.50
2023-03-14T18:46:36.101Z,8.47
2023-03-14T18:49:06.689Z,8.46
2023-03-14T18:51:36.978Z,8.51
2023-03-14T18:54:09.936Z,8.51
2023-03-14T18:56:42.960Z,8.44
2023-03-14T18:59:12.797Z,8.56
2023-03-14T19:01:43.413Z,8.50
2023-03-14T19:04:12.850Z,8.27
2023-03-14T19:06:43.104Z,8.36
2023-03-14T19:09:15.612Z,8.40
2023-03-14T19:11:46.360Z,8.22
2023-03-14T19:14:18.107Z,7.98
2023-03-14T19:16:48.108Z,7.94
2023-03-14T19:19:18.446Z,7.85
2023-03-14T19:21:47.639Z,7.81
2023-03-14T19:24:20.683Z,7.99
2023-03-14T19:26:53.679Z,8.04
2023-03-14T19:29:23.511Z,8.00
2023-03-14T19:31:53.396Z,7.98
2023-03-14T19:34:24.494Z,8.01
2023-03-14T19:36:53.626Z,8.03
2023-03-14T19:39:22.620Z,7.99
2023-03-14T19:41:57.904Z,7.98
2023-03-14T19:44:27.571Z,7.90
2023-03-14T19:46:56.597Z,7.94
2023-03-14T19:49:25.708Z,7.93
2023-03-14T19:51:54.982Z,7.78
2023-03-14T19:54:24.274Z,7.78
2023-03-14T19:56:54.996Z,7.77
2023-03-14T19:59:24.044Z,7.67
2023-03-14T20:01:54.983Z,7.53
2023-03-14T20:04:25.829Z,7.38
2023-03-14T20:06:55.611Z,7.43
2023-03-14T20:09:25.952Z,7.41
2023-03-14T20:11:56.596Z,7.44
2023-03-14T20:14:25.675Z,7.42
2023-03-14T20:16:55.244Z,7.43
2023-03-14T20:19:24.483Z,7.35
2023-03-14T20:21:53.731Z,7.37
2023-03-14T20:24:22.934Z,7.28
2023-03-14T20:26:52.722Z,7.22
2023-03-14T20:29:23.495Z,7.28
2023-03-14T20:31:52.537Z,7.28
2023-03-14T20:34:21.564Z,7.19
2023-03-14T20:36:53.233Z,7.29
2023-03-14T20:39:22.323Z,7.30
2023-03-14T20:41:51.399Z,7.29
2023-03-14T20:44:20.404Z,7.28
2023-03-14T20:46:51.563Z,7.27
2023-03-14T20:49:21.171Z,7.20
2023-03-14T20:51:50.168Z,7.14
2023-03-14T20:54:19.417Z,7.01
2023-03-14T20:56:48.512Z,6.93
2023-03-14T20:59:17.554Z,6.77
2023-03-14T21:04:38.986Z,6.73
2023-03-14T21:07:08.246Z,6.73
2023-03-14T21:09:39.011Z,6.79
2023-03-14T21:12:08.462Z,6.62
2023-03-14T21:14:37.576Z,6.76
2023-03-14T21:17:07.783Z,6.72
2023-03-14T21:19:38.264Z,6.80
2023-03-14T21:22:07.721Z,6.83
2023-03-14T21:24:36.831Z,6.81
2023-03-14T21:27:06.605Z,6.92
2023-03-14T21:29:37.483Z,6.91
2023-03-14T21:32:06.886Z,6.78
2023-03-14T21:34:35.994Z,6.76
2023-03-14T21:37:06.484Z,6.70
2023-03-14T21:39:35.868Z,6.65
2023-03-14T21:42:05.547Z,6.48
2023-03-14T21:44:37.372Z,6.41
2023-03-14T21:47:08.245Z,6.34
2023-03-14T21:49:39.335Z,6.40
2023-03-14T21:52:12.375Z,6.44
2023-03-14T21:54:43.694Z,6.46
2023-03-14T21:57:14.587Z,6.53
2023-03-14T21:59:45.146Z,6.49
2023-03-14T22:02:15.962Z,6.48
2023-03-14T22:04:45.141Z,6.50
2023-03-14T22:07:18.932Z,6.37
2023-03-14T22:09:49.941Z,6.34
2023-03-14T22:12:20.385Z,6.34
2023-03-14T22:14:50.293Z,6.26
2023-03-14T22:17:20.649Z,6.33
2023-03-14T22:19:49.676Z,6.34
2023-03-14T22:22:20.765Z,6.31
2023-03-14T22:24:50.411Z,6.31
2023-03-14T22:27:20.273Z,6.38
2023-03-14T22:29:49.169Z,6.27
2023-03-14T22:32:18.244Z,6.28
2023-03-14T22:34:47.948Z,6.27
2023-03-14T22:37:17.448Z,6.35
2023-03-14T22:39:48.685Z,6.45
2023-03-14T22:42:18.378Z,6.48
2023-03-14T22:44:47.409Z,6.56
2023-03-14T22:47:16.327Z,6.50
2023-03-14T22:49:46.769Z,6.48
2023-03-14T22:52:16.422Z,6.57
2023-03-14T22:54:45.475Z,6.65
2023-03-14T22:57:17.782Z,6.58
2023-03-14T22:59:46.825Z,6.76
2023-03-14T23:02:15.855Z,6.68
2023-03-14T23:04:44.851Z,6.68
2023-03-14T23:07:14.062Z,6.51
2023-03-14T23:09:43.233Z,6.15
2023-03-14T23:12:12.438Z,6.24
2023-03-14T23:14:43.939Z,6.33
2023-03-14T23:17:13.128Z,6.29
2023-03-14T23:19:42.015Z,6.25
2023-03-14T23:22:11.114Z,6.18
2023-03-14T23:24:40.197Z,6.09
2023-03-14T23:27:09.153Z,6.22
2023-03-14T23:29:38.754Z,6.16
2023-03-14T23:32:09.511Z,6.30
2023-03-14T23:34:38.661Z,6.30
2023-03-14T23:37:07.871Z,6.35
2023-03-14T23:39:36.963Z,6.33
2023-03-14T23:42:06.138Z,6.38
2023-03-14T23:44:35.561Z,6.39
2023-03-14T23:47:05.756Z,6.44
2023-03-14T23:49:37.407Z,6.34
2023-03-14T23:52:06.806Z,6.43
2023-03-14T23:54:36.100Z,6.48
2023-03-14T23:57:06.832Z,6.47
2023-03-14T23:59:37.597Z,6.51
